Portada
METAR-TAF:

METAR-TAF

Aeroports :

Portage Glacier, Alaska, Estats Units d'Amèrica

latitud: 60-47N, longitud: 148-50W, altitud: 29 m

Observació

L'informe es va fer fa 41 minuts, a les 08:53 UTC
Vent 7 kt del Oest
Temperatura -3°C
Humitat 63%
Pressió 1001 hPa
Visibilitat: 16.1 km
Cel ennuvolat a una alçada de 1200 ft
Cel cobert a una alçada de 1800 ft

METAR: PATO 220853Z AUTO 28007KT 10SM BKN012 OVC018 M03/M09 A2955 RMK AO2 SLP008 60000 T10331094 410331083 53013 TSNO $

Hora: 00:34 (09:34 UTC)


TAF: manca

Observacions i pronòstics meteorològics de més de 4000 aeroports (METAR i TAF).

Les estacions disponibles són els punts grocs i vermells al mapa.

Posi el ratolí al punt desitjat per veure el nom de l'estació.

Feu clic per veure les observacions i els pronòstics meteorològics.

Per canviar el mapa: feu clic els botons verds amb una creu de color negre per apropar; al botó verd amb un guió per allunyar la imatge; o en les fletxes verdes per a mapes adjacents.


METAR-TAF: